Date,TemperatureHighF,TemperatureAvgF,TemperatureLowF,DewpointHighF,DewpointAvgF,DewpointLowF,HumidityHigh,HumidityAvg,HumidityLow,PressureMaxIn,PressureMinIn,WindSpeedMaxMPH,WindSpeedAvgMPH,GustSpeedMaxMPH,PrecipitationSumIn
2013-2-1,33.0,30.1,27.0,21.0,14.8,9.0,65,52,43,0.00,40.00,34,24,45,0.00
2013-2-2,30.0,26.7,24.0,23.0,13.6,10.0,87,57,45,0.00,40.00,25,17,34,0.00
2013-2-3,30.0,25.8,25.0,22.0,19.0,16.0,87,76,59,0.00,40.00,13,9,18,0.00
2013-2-4,31.0,29.7,27.0,14.0,12.1,11.0,51,47,44,0.00,40.00,22,19,29,0.00
2013-2-5,30.0,28.5,27.0,26.0,21.9,14.0,88,77,50,0.00,40.00,18,10,22,0.00
2013-2-6,38.0,32.3,29.0,28.0,23.4,5.0,89,72,37,0.00,40.00,25,12,29,0.00
2013-2-7,33.0,28.3,25.0,23.0,9.5,3.0,67,45,32,0.00,40.00,22,12,27,0.00
2013-2-8,36.0,33.3,31.0,33.0,30.2,22.0,100,88,64,0.00,40.00,34,27,43,0.00
2013-2-11,42.0,39.9,38.0,42.0,39.9,37.0,100,100,99,0.00,40.00,13,5,20,0.00
2013-2-12,40.0,38.3,36.0,38.0,32.1,28.0,100,78,66,0.00,40.00,22,15,27,0.00
2013-2-13,39.0,36.1,35.0,30.0,28.0,26.0,78,72,59,0.00,40.00,13,6,18,0.00
2013-2-14,39.0,37.4,37.0,34.0,31.6,28.0,89,79,64,0.00,40.00,11,9,16,0.00
2013-2-15,41.0,38.8,36.0,38.0,35.9,34.0,95,88,79,0.00,40.00,11,8,18,0.00
2013-2-16,40.0,35.5,32.0,37.0,28.7,22.0,95,76,54,0.00,40.00,22,13,29,0.00
2013-2-17,31.0,27.2,21.0,25.0,12.6,9.0,78,54,39,0.00,40.00,34,28,47,0.00
2013-2-18,34.0,26.2,20.0,18.0,11.4,8.0,62,53,43,0.00,40.00,34,24,45,0.00
2013-2-19,44.0,37.8,33.0,42.0,31.5,20.0,98,78,55,0.00,40.00,18,11,25,0.00
2013-2-20,39.0,33.0,28.0,37.0,20.9,14.0,98,61,49,0.00,40.00,29,23,36,0.00
2013-2-21,33.0,29.1,27.0,19.0,16.7,15.0,70,59,53,0.00,40.00,27,25,36,0.00
2013-2-22,36.0,31.3,27.0,29.0,22.8,18.0,76,70,61,0.00,40.00,27,13,31,0.00
2013-2-23,38.0,36.2,35.0,36.0,33.7,29.0,97,90,77,0.00,40.00,22,14,29,0.00
2013-2-24,39.0,37.0,35.0,36.0,34.5,28.0,96,90,70,0.00,40.00,18,13,22,0.00
2013-2-25,39.0,37.5,37.0,33.0,31.8,29.0,86,79,69,0.00,40.00,11,6,13,0.00
2013-2-26,38.0,36.8,35.0,35.0,33.3,31.0,94,87,77,0.00,40.00,27,10,34,0.00
2013-2-27,41.0,39.4,37.0,41.0,38.8,35.0,100,97,93,0.00,40.00,34,24,45,0.00
2013-2-28,40.0,37.5,36.0,39.0,36.5,35.0,97,95,93,0.00,40.00,11,5,13,0.00